Time;durP1;ratioP1;P1;durP2;ratioP2;P2;SDS_P1;SDS_P2;PMS_P1;PMS_P2;Temp;Humidity;BMP_temperature;BMP_pressure;BME280_temperature;BME280_humidity;BME280_pressure;Samples;Min_cycle;Max_cycle;Signal;HPM_P1;HPM_P2
2021/10/20 00:01:44;;;;;;;4.22;2.00;;;13.80;65.40;;;;;;2340046;54;21015;-74
2021/10/20 00:04:11;;;;;;;4.12;2.20;;;13.80;65.50;;;;;;2356365;53;21475;-76
2021/10/20 00:06:38;;;;;;;5.70;2.20;;;13.70;65.50;;;;;;2370624;53;20970;-73
2021/10/20 00:09:04;;;;;;;4.05;2.05;;;13.70;65.60;;;;;;2367582;52;20940;-73
2021/10/20 00:11:34;;;;;;;5.80;2.33;;;13.60;65.50;;;;;;2488849;52;21036;-75
2021/10/20 00:14:00;;;;;;;8.10;2.35;;;13.60;65.40;;;;;;2385936;53;21621;-76
2021/10/20 00:16:28;;;;;;;3.42;1.90;;;13.60;65.50;;;;;;2371496;53;20957;-74
2021/10/20 00:19:06;;;;;;;3.78;2.28;;;13.50;65.50;;;;;;2371213;53;20998;-73
2021/10/20 00:21:33;;;;;;;5.53;2.62;;;13.50;65.30;;;;;;2371732;53;21022;-73
2021/10/20 00:24:00;;;;;;;4.68;2.20;;;13.40;65.50;;;;;;2361922;53;21013;-75
2021/10/20 00:26:27;;;;;;;4.20;1.98;;;13.40;65.60;;;;;;2362059;53;20950;-76
2021/10/20 00:28:53;;;;;;;4.18;2.33;;;13.30;65.60;;;;;;2405513;52;21762;-76
2021/10/20 00:31:20;;;;;;;4.00;2.08;;;13.30;65.80;;;;;;2372016;53;21034;-73
2021/10/20 00:33:47;;;;;;;4.50;2.15;;;13.20;65.80;;;;;;2438879;53;21008;-72
2021/10/20 00:36:13;;;;;;;3.30;1.87;;;13.20;65.90;;;;;;2343415;54;20952;-75
2021/10/20 00:38:40;;;;;;;3.65;1.70;;;13.20;66.00;;;;;;2541178;53;20944;-75
2021/10/20 00:41:09;;;;;;;4.05;2.22;;;13.10;65.90;;;;;;2333997;54;21033;-73
2021/10/20 00:43:35;;;;;;;4.72;2.37;;;13.10;65.90;;;;;;2333366;53;20937;-76
2021/10/20 00:46:01;;;;;;;3.60;2.15;;;13.10;65.90;;;;;;2347500;54;20931;-76
2021/10/20 00:48:27;;;;;;;5.12;2.08;;;13.00;65.70;;;;;;2343809;54;20920;-75
2021/10/20 00:50:54;;;;;;;4.35;2.12;;;13.00;65.70;;;;;;2342544;54;20949;-73
2021/10/20 00:53:21;;;;;;;4.75;1.95;;;13.00;65.80;;;;;;2441466;53;20969;-74
2021/10/20 00:55:47;;;;;;;4.15;2.17;;;12.90;65.80;;;;;;2348940;53;20913;-73
2021/10/20 00:58:14;;;;;;;3.58;1.98;;;12.90;65.90;;;;;;2402640;53;21056;-75
2021/10/20 01:00:42;;;;;;;4.00;2.15;;;12.80;65.90;;;;;;2335772;54;20986;-76
2021/10/20 01:03:09;;;;;;;4.43;2.08;;;12.80;65.90;;;;;;2333402;53;20946;-75
2021/10/20 01:05:57;;;;;;;4.32;2.25;;;12.80;66.00;;;;;;2319329;55;20969;-72
2021/10/20 01:08:23;;;;;;;5.55;2.00;;;12.70;65.70;;;;;;2382685;52;22060;-75
2021/10/20 01:10:49;;;;;;;4.18;2.08;;;12.70;66.10;;;;;;2325811;53;20924;-71
2021/10/20 01:13:16;;;;;;;3.72;2.00;;;12.70;66.10;;;;;;2334896;54;20961;-75
2021/10/20 01:15:42;;;;;;;4.43;2.58;;;12.70;66.10;;;;;;2317280;54;21003;-74
2021/10/20 01:18:08;;;;;;;4.80;2.05;;;12.60;66.00;;;;;;2331692;53;21003;-74
2021/10/20 01:20:35;;;;;;;3.90;2.00;;;12.60;66.00;;;;;;2340123;53;21031;-75
2021/10/20 01:23:02;;;;;;;3.75;1.92;;;12.60;66.10;;;;;;2403538;53;20951;-73
2021/10/20 01:25:28;;;;;;;4.50;2.05;;;12.50;65.90;;;;;;2335999;54;22010;-74
2021/10/20 01:27:56;;;;;;;3.47;1.73;;;12.50;66.00;;;;;;2341093;54;20972;-73
2021/10/20 01:30:22;;;;;;;3.70;1.95;;;12.50;66.10;;;;;;2334765;54;21029;-74
2021/10/20 01:32:48;;;;;;;4.12;2.00;;;12.40;66.00;;;;;;2330739;54;21199;-74
2021/10/20 01:35:15;;;;;;;6.25;2.50;;;12.40;66.10;;;;;;2326194;54;20949;-75
2021/10/20 01:37:42;;;;;;;4.53;2.60;;;12.40;66.20;;;;;;2393246;52;21020;-73
2021/10/20 01:40:10;;;;;;;5.18;2.55;;;12.30;66.30;;;;;;2442566;53;20960;-74
2021/10/20 01:42:37;;;;;;;5.25;2.30;;;12.30;66.40;;;;;;2375374;53;21461;-75
2021/10/20 01:45:11;;;;;;;4.47;2.30;;;12.30;66.50;;;;;;2484089;53;20941;-75
2021/10/20 01:47:38;;;;;;;4.30;1.97;;;12.30;66.50;;;;;;2381584;52;20918;-72
2021/10/20 01:50:06;;;;;;;3.87;1.70;;;12.20;66.60;;;;;;2372028;53;20926;-73
2021/10/20 01:52:33;;;;;;;8.13;2.42;;;12.20;66.60;;;;;;2371384;53;20982;-74
2021/10/20 01:54:59;;;;;;;5.55;2.65;;;12.20;66.60;;;;;;2370198;53;20950;-74
2021/10/20 01:57:25;;;;;;;3.80;1.92;;;12.20;66.70;;;;;;2422818;52;20997;-73
2021/10/20 01:59:52;;;;;;;6.35;2.00;;;12.20;66.70;;;;;;2371918;53;20930;-76
2021/10/20 02:02:18;;;;;;;3.78;1.75;;;12.20;66.80;;;;;;2372351;52;20941;-75
2021/10/20 02:04:45;;;;;;;4.30;1.92;;;12.20;66.80;;;;;;2361305;53;20944;-76
2021/10/20 02:07:13;;;;;;;4.45;2.00;;;12.10;66.80;;;;;;2386198;53;21772;-75
2021/10/20 02:09:39;;;;;;;3.45;1.85;;;12.10;66.80;;;;;;2371850;53;20902;-74
2021/10/20 02:12:06;;;;;;;4.03;2.08;;;12.10;66.80;;;;;;2363845;53;20994;-74
2021/10/20 02:14:32;;;;;;;4.60;2.03;;;12.10;66.90;;;;;;2360571;53;20922;-74
2021/10/20 02:16:59;;;;;;;5.40;2.28;;;12.10;66.90;;;;;;2339906;53;20991;-74
2021/10/20 02:19:27;;;;;;;4.12;2.10;;;12.10;67.00;;;;;;2330672;55;21087;-75
2021/10/20 02:21:57;;;;;;;4.82;2.22;;;12.10;67.00;;;;;;2351275;53;20935;-73
2021/10/20 02:24:23;;;;;;;4.62;2.50;;;12.10;67.10;;;;;;2324243;54;21004;-74
2021/10/20 02:26:50;;;;;;;5.62;2.60;;;12.10;67.10;;;;;;2341084;54;20973;-73
2021/10/20 02:29:16;;;;;;;4.75;2.40;;;12.00;67.00;;;;;;2344628;53;20948;-74
2021/10/20 02:31:46;;;;;;;3.55;1.77;;;12.00;67.10;;;;;;2343970;54;20968;-74
2021/10/20 02:34:25;;;;;;;3.30;1.55;;;12.10;67.40;;;;;;2477828;52;20983;-74
2021/10/20 02:36:52;;;;;;;3.40;1.60;;;12.00;67.30;;;;;;2359149;53;21028;-74
2021/10/20 02:39:18;;;;;;;4.28;2.00;;;12.00;67.30;;;;;;2318455;54;21799;-73
2021/10/20 02:41:45;;;;;;;4.40;2.30;;;12.00;67.30;;;;;;2471314;52;20964;-74
2021/10/20 02:44:11;;;;;;;3.70;2.17;;;12.10;67.40;;;;;;2343494;54;20991;-75
2021/10/20 02:46:38;;;;;;;4.80;2.30;;;12.00;67.30;;;;;;2386655;53;20941;-76
2021/10/20 02:49:05;;;;;;;3.87;2.20;;;12.00;67.40;;;;;;2325341;54;20950;-73
2021/10/20 02:51:38;;;;;;;3.78;2.10;;;12.10;67.70;;;;;;2371379;53;21401;-75
2021/10/20 02:54:05;;;;;;;3.42;1.70;;;12.10;67.70;;;;;;2371996;53;20961;-75
2021/10/20 02:56:32;;;;;;;4.37;1.77;;;12.10;67.80;;;;;;2347109;53;20930;-74
2021/10/20 02:58:58;;;;;;;3.17;1.65;;;12.10;67.80;;;;;;2371389;53;20973;-74
2021/10/20 03:01:24;;;;;;;3.42;1.55;;;12.10;67.80;;;;;;2371340;53;20913;-71
2021/10/20 03:03:53;;;;;;;3.28;1.73;;;12.10;67.80;;;;;;2351920;53;20976;-74
2021/10/20 03:06:22;;;;;;;3.28;1.90;;;12.10;67.80;;;;;;2394078;53;21061;-74
2021/10/20 03:08:49;;;;;;;3.80;1.90;;;12.10;67.80;;;;;;2480280;52;20969;-74
2021/10/20 03:11:15;;;;;;;3.12;1.50;;;12.10;67.90;;;;;;2427249;53;20927;-75
2021/10/20 03:13:42;;;;;;;2.87;1.50;;;12.10;67.90;;;;;;2379762;52;20958;-74
2021/10/20 03:16:08;;;;;;;3.92;1.85;;;12.10;67.80;;;;;;2371699;53;20982;-76
2021/10/20 03:18:35;;;;;;;3.42;1.75;;;12.10;67.80;;;;;;2367517;53;20969;-73
2021/10/20 03:21:03;;;;;;;4.45;1.83;;;12.10;67.80;;;;;;2422508;52;20955;-72
2021/10/20 03:23:30;;;;;;;3.55;2.05;;;12.10;67.70;;;;;;2362608;53;21009;-73
2021/10/20 03:25:56;;;;;;;3.62;1.83;;;12.10;67.60;;;;;;2367451;53;21502;-72
2021/10/20 03:28:23;;;;;;;3.87;1.85;;;12.00;68.20;;;;;;2371680;53;20978;-73
2021/10/20 03:30:51;;;;;;;4.85;2.65;;;12.10;67.60;;;;;;2515692;52;21023;-75
2021/10/20 03:33:18;;;;;;;6.00;2.37;;;12.00;67.50;;;;;;2347339;53;20963;-72
2021/10/20 03:35:44;;;;;;;4.30;2.08;;;12.00;67.50;;;;;;2354392;53;21020;-76
2021/10/20 03:38:12;;;;;;;7.55;3.83;;;12.00;67.50;;;;;;2364645;53;21002;-75
2021/10/20 03:40:38;;;;;;;9.45;4.82;;;12.00;67.50;;;;;;2371333;53;21399;-73
2021/10/20 03:43:04;;;;;;;13.57;6.45;;;12.00;67.40;;;;;;2496111;52;21041;-73
2021/10/20 03:45:31;;;;;;;10.57;5.50;;;11.90;67.40;;;;;;2342414;53;20940;-75
2021/10/20 03:47:59;;;;;;;9.25;4.25;;;11.90;67.50;;;;;;2354044;53;20918;-73
2021/10/20 03:50:26;;;;;;;8.70;4.10;;;11.90;67.70;;;;;;2425659;52;20987;-75
2021/10/20 03:52:52;;;;;;;4.82;2.50;;;11.90;67.80;;;;;;2398489;53;20998;-73
2021/10/20 03:55:19;;;;;;;5.72;2.90;;;11.90;67.90;;;;;;2370919;53;20934;-72
2021/10/20 03:57:45;;;;;;;4.95;2.62;;;11.90;68.00;;;;;;2424123;52;20929;-71
2021/10/20 04:00:16;;;;;;;4.43;2.25;;;11.90;68.00;;;;;;2328578;53;20998;-72
2021/10/20 04:02:44;;;;;;;4.10;2.00;;;11.90;68.00;;;;;;2347804;54;21423;-71
2021/10/20 04:05:17;;;;;;;3.80;2.03;;;11.90;68.00;;;;;;2405021;52;20941;-75
2021/10/20 04:07:44;;;;;;;4.37;2.17;;;12.00;67.90;;;;;;2372568;53;21517;-75
2021/10/20 04:10:16;;;;;;;5.22;2.65;;;11.90;67.80;;;;;;2347596;53;21015;-75
2021/10/20 04:12:42;;;;;;;4.65;2.60;;;11.90;67.80;;;;;;2416929;52;20973;-73
2021/10/20 04:15:09;;;;;;;6.28;3.05;;;11.90;67.70;;;;;;2343864;53;21525;-73
2021/10/20 04:17:38;;;;;;;5.10;2.53;;;11.90;67.70;;;;;;2353422;53;20958;-71
2021/10/20 04:20:08;;;;;;;4.85;2.45;;;11.90;67.80;;;;;;2433247;52;20958;-74
2021/10/20 04:22:35;;;;;;;4.53;2.10;;;11.90;67.80;;;;;;2353721;53;21045;-75
2021/10/20 04:25:03;;;;;;;3.85;2.05;;;11.90;67.90;;;;;;2394027;52;21534;-73
2021/10/20 04:27:29;;;;;;;4.15;2.22;;;11.80;67.80;;;;;;2346723;53;20955;-73
2021/10/20 04:29:58;;;;;;;4.20;2.10;;;11.80;68.00;;;;;;2370600;53;21003;-73
2021/10/20 04:32:25;;;;;;;5.03;1.80;;;11.80;68.10;;;;;;2347058;53;21416;-74
2021/10/20 04:34:52;;;;;;;3.90;2.08;;;11.80;68.10;;;;;;2367873;53;20979;-74
2021/10/20 04:37:24;;;;;;;4.05;2.22;;;11.80;68.20;;;;;;2348991;53;20932;-73
2021/10/20 04:39:53;;;;;;;4.00;1.98;;;11.80;68.20;;;;;;2335167;54;21539;-72
2021/10/20 04:42:21;;;;;;;4.15;2.08;;;11.80;68.20;;;;;;2364838;53;20949;-74
2021/10/20 04:44:48;;;;;;;3.90;2.22;;;11.80;68.10;;;;;;2347259;54;20954;-74
2021/10/20 04:47:15;;;;;;;3.97;2.03;;;11.80;68.10;;;;;;2371092;53;20974;-72
2021/10/20 04:49:44;;;;;;;4.07;2.12;;;11.80;68.00;;;;;;2370620;53;20942;-73
2021/10/20 04:52:11;;;;;;;4.87;2.35;;;11.80;67.90;;;;;;2348079;53;20994;-74
2021/10/20 04:54:37;;;;;;;4.20;2.05;;;11.80;67.90;;;;;;2371293;53;21803;-72
2021/10/20 04:57:03;;;;;;;4.12;2.53;;;11.80;67.90;;;;;;2434304;52;20959;-75
2021/10/20 04:59:31;;;;;;;3.87;2.20;;;11.80;67.90;;;;;;2370429;53;21483;-75
2021/10/20 05:01:58;;;;;;;4.97;2.47;;;11.80;67.90;;;;;;2370805;53;21013;-73
2021/10/20 05:04:25;;;;;;;4.20;2.28;;;11.80;67.90;;;;;;2368104;53;20964;-72
2021/10/20 05:06:51;;;;;;;5.20;2.62;;;11.70;67.80;;;;;;2482711;53;20978;-73
2021/10/20 05:09:17;;;;;;;3.80;2.17;;;11.70;67.80;;;;;;2370647;53;20938;-75
2021/10/20 05:11:44;;;;;;;4.68;2.30;;;11.70;67.90;;;;;;2344989;53;21011;-73
2021/10/20 05:14:10;;;;;;;5.12;2.92;;;11.70;67.90;;;;;;2409821;52;21412;-72
2021/10/20 05:16:37;;;;;;;4.65;2.53;;;11.70;67.90;;;;;;2352203;53;21063;-73
2021/10/20 05:19:03;;;;;;;4.57;2.60;;;11.60;68.50;;;;;;2369442;53;20914;-73
2021/10/20 05:21:29;;;;;;;4.50;2.20;;;11.60;67.80;;;;;;2344009;53;20938;-73
2021/10/20 05:23:56;;;;;;;5.47;2.72;;;11.60;67.90;;;;;;2371269;53;20981;-73
2021/10/20 05:26:22;;;;;;;6.60;3.30;;;11.60;67.90;;;;;;2370674;53;21948;-73
2021/10/20 05:28:53;;;;;;;6.40;3.67;;;11.60;67.90;;;;;;2370536;53;20938;-73
2021/10/20 05:31:19;;;;;;;5.78;3.58;;;11.60;67.90;;;;;;2370770;53;20986;-76
2021/10/20 05:33:45;;;;;;;6.85;3.45;;;11.60;67.90;;;;;;2363768;53;21492;-72
2021/10/20 05:36:11;;;;;;;7.18;3.90;;;11.60;67.90;;;;;;2354023;53;20917;-72
2021/10/20 05:38:39;;;;;;;6.32;3.83;;;11.60;67.90;;;;;;2356581;53;20981;-73
2021/10/20 05:41:07;;;;;;;7.65;4.68;;;11.50;67.80;;;;;;2343674;53;21479;-73
2021/10/20 05:43:36;;;;;;;8.23;4.78;;;11.50;67.80;;;;;;2408622;52;21548;-74
2021/10/20 05:46:05;;;;;;;8.75;5.05;;;11.50;67.90;;;;;;2511772;52;21548;-75
2021/10/20 05:48:31;;;;;;;10.02;5.68;;;11.50;68.00;;;;;;2370803;53;20946;-74
2021/10/20 05:50:59;;;;;;;8.70;5.72;;;11.50;68.10;;;;;;2371229;53;21014;-72
2021/10/20 05:53:26;;;;;;;11.98;6.40;;;11.40;68.20;;;;;;2371365;53;21463;-73
2021/10/20 05:55:56;;;;;;;10.52;6.18;;;11.50;68.40;;;;;;2444485;53;20975;-72
2021/10/20 05:58:22;;;;;;;9.45;5.90;;;11.50;68.30;;;;;;2400132;53;21002;-73
2021/10/20 06:00:49;;;;;;;9.00;5.85;;;11.40;68.30;;;;;;2347963;53;21001;-71
2021/10/20 06:03:15;;;;;;;13.02;7.30;;;11.50;68.50;;;;;;2359177;53;20962;-74
2021/10/20 06:05:41;;;;;;;16.50;10.93;;;11.50;68.60;;;;;;2498409;52;21751;-74
2021/10/20 06:08:08;;;;;;;19.60;11.80;;;11.50;68.80;;;;;;2372011;53;20949;-75
2021/10/20 06:10:35;;;;;;;18.92;11.95;;;11.50;69.00;;;;;;2405022;52;20944;-71
2021/10/20 06:13:03;;;;;;;21.05;12.95;;;11.50;69.10;;;;;;2324598;54;20959;-73
2021/10/20 06:15:32;;;;;;;19.62;12.65;;;11.50;69.10;;;;;;2364594;53;20926;-74
2021/10/20 06:18:03;;;;;;;17.50;10.60;;;11.50;69.20;;;;;;2371386;53;20958;-71
2021/10/20 06:20:29;;;;;;;13.18;8.18;;;11.60;69.20;;;;;;2371432;53;20930;-74
2021/10/20 06:22:58;;;;;;;15.68;9.73;;;11.60;69.20;;;;;;2375773;52;20934;-74
2021/10/20 06:25:24;;;;;;;12.57;7.87;;;11.60;69.20;;;;;;2381776;52;20910;-72
2021/10/20 06:27:51;;;;;;;11.93;7.87;;;11.60;69.30;;;;;;2364198;52;20988;-73
2021/10/20 06:30:17;;;;;;;10.93;6.85;;;11.60;69.50;;;;;;2345367;53;21494;-74
2021/10/20 06:32:45;;;;;;;14.35;7.82;;;11.70;69.60;;;;;;2371304;53;21001;-75
2021/10/20 06:35:12;;;;;;;11.57;6.93;;;11.70;69.60;;;;;;2371129;53;20914;-73
2021/10/20 06:37:44;;;;;;;10.40;6.45;;;11.70;69.60;;;;;;2370120;53;20934;-72
2021/10/20 06:40:11;;;;;;;9.73;6.20;;;11.80;69.80;;;;;;2384486;52;20936;-71
2021/10/20 06:42:38;;;;;;;11.25;6.62;;;11.80;69.80;;;;;;2561932;52;20967;-72
2021/10/20 06:45:06;;;;;;;10.93;6.65;;;11.80;69.70;;;;;;2346705;54;21009;-75
2021/10/20 06:47:32;;;;;;;11.43;7.00;;;11.80;69.80;;;;;;2333458;53;20963;-74
2021/10/20 06:49:59;;;;;;;12.18;7.78;;;11.90;70.00;;;;;;2353527;53;20938;-72
2021/10/20 06:52:25;;;;;;;9.05;6.22;;;11.90;70.10;;;;;;2371579;53;20927;-73
2021/10/20 06:54:52;;;;;;;9.32;5.78;;;11.90;70.30;;;;;;2366187;52;20997;-73
2021/10/20 06:57:19;;;;;;;7.62;4.70;;;11.90;70.40;;;;;;2353025;53;21506;-74
2021/10/20 06:59:47;;;;;;;6.87;4.60;;;12.00;70.80;;;;;;2354734;53;21019;-75
2021/10/20 07:02:13;;;;;;;7.15;4.68;;;12.10;71.10;;;;;;2362759;53;20971;-75
2021/10/20 07:04:39;;;;;;;5.82;4.07;;;12.20;71.40;;;;;;2350920;53;21018;-72
2021/10/20 07:07:11;;;;;;;5.90;3.30;;;12.30;71.80;;;;;;2371043;53;20997;-75
2021/10/20 07:09:40;;;;;;;5.45;3.17;;;12.40;72.40;;;;;;2347388;54;21518;-75
2021/10/20 07:12:07;;;;;;;4.57;2.80;;;12.50;73.00;;;;;;2317558;54;20993;-74
2021/10/20 07:14:33;;;;;;;4.55;2.75;;;12.60;73.60;;;;;;2314312;54;21012;-73
2021/10/20 07:17:00;;;;;;;5.18;2.97;;;12.80;74.10;;;;;;2362511;53;20960;-72
2021/10/20 07:19:29;;;;;;;5.55;3.10;;;13.00;74.40;;;;;;2339461;54;20949;-74
2021/10/20 07:21:56;;;;;;;5.03;2.97;;;13.20;74.60;;;;;;2329769;54;21575;-72
2021/10/20 07:24:23;;;;;;;4.45;2.90;;;13.40;74.70;;;;;;2313885;54;21004;-73
2021/10/20 07:27:08;;;;;;;4.93;3.05;;;13.50;74.70;;;;;;2339790;53;21888;-72
2021/10/20 07:29:34;;;;;;;4.60;2.75;;;13.70;74.70;;;;;;2323684;53;20939;-74
2021/10/20 07:32:04;;;;;;;3.62;2.40;;;13.90;75.30;;;;;;2324606;54;21024;-72
2021/10/20 07:34:30;;;;;;;4.75;2.80;;;14.10;75.70;;;;;;2339216;54;20957;-72
2021/10/20 07:37:00;;;;;;;5.60;3.12;;;14.30;76.30;;;;;;2334242;54;21881;-73
2021/10/20 07:39:26;;;;;;;3.70;2.22;;;14.60;77.00;;;;;;2339427;53;21002;-73
2021/10/20 07:41:53;;;;;;;3.75;2.30;;;14.80;77.20;;;;;;2342704;54;21092;-76
2021/10/20 07:44:19;;;;;;;6.20;2.53;;;15.20;77.40;;;;;;2343028;54;20960;-74
2021/10/20 07:46:45;;;;;;;5.12;2.90;;;15.40;77.40;;;;;;2342235;54;20961;-76
2021/10/20 07:49:13;;;;;;;4.80;2.92;;;15.80;77.70;;;;;;2340534;54;20993;-75
2021/10/20 07:51:39;;;;;;;4.50;2.35;;;16.00;77.30;;;;;;2325135;54;20937;-74
2021/10/20 07:54:05;;;;;;;6.72;2.50;;;16.40;77.40;;;;;;2344709;54;20911;-72
2021/10/20 07:56:35;;;;;;;3.97;2.47;;;16.70;77.00;;;;;;2324312;54;21008;-74
2021/10/20 07:59:02;;;;;;;4.37;2.40;;;17.00;76.60;;;;;;2340984;54;21741;-75
2021/10/20 08:01:28;;;;;;;4.30;2.40;;;17.30;76.30;;;;;;2343070;53;20982;-77
2021/10/20 08:03:56;;;;;;;3.90;2.20;;;17.50;75.50;;;;;;2346752;53;21541;-74
2021/10/20 08:06:22;;;;;;;4.62;2.75;;;17.80;75.20;;;;;;2347513;53;20996;-75
2021/10/20 08:08:49;;;;;;;4.37;2.50;;;18.10;73.80;;;;;;2337371;53;22009;-75
2021/10/20 08:11:16;;;;;;;5.60;2.65;;;18.30;73.20;;;;;;2323955;54;20944;-75
2021/10/20 08:13:42;;;;;;;3.75;2.40;;;18.50;73.00;;;;;;2343758;54;20956;-74
2021/10/20 08:16:09;;;;;;;3.92;2.53;;;18.70;72.50;;;;;;2349562;53;20975;-78
2021/10/20 08:18:36;;;;;;;3.60;2.22;;;18.90;72.10;;;;;;2345723;53;20988;-75
2021/10/20 08:21:07;;;;;;;4.60;2.58;;;19.10;71.40;;;;;;2340780;53;20912;-75
2021/10/20 08:23:35;;;;;;;6.12;2.50;;;19.30;71.00;;;;;;2385643;53;21460;-76
2021/10/20 08:26:02;;;;;;;4.60;2.50;;;19.40;70.70;;;;;;2357130;53;20918;-77
2021/10/20 08:28:29;;;;;;;4.50;2.70;;;19.60;69.80;;;;;;2339434;52;20945;-76
2021/10/20 08:30:56;;;;;;;4.68;2.50;;;19.70;68.70;;;;;;2526444;52;20921;-77
2021/10/20 08:33:22;;;;;;;5.95;2.80;;;19.90;68.90;;;;;;2421182;53;20938;-75
2021/10/20 08:35:50;;;;;;;7.50;2.92;;;20.00;68.70;;;;;;2370677;53;21038;-78
2021/10/20 08:38:16;;;;;;;5.15;2.50;;;20.10;68.00;;;;;;2353703;53;20950;-76
2021/10/20 08:40:47;;;;;;;4.30;2.30;;;20.30;67.30;;;;;;2371862;53;20934;-76
2021/10/20 08:43:22;;;;;;;3.20;2.00;;;20.40;67.60;;;;;;2353513;54;21020;-75
2021/10/20 08:45:50;;;;;;;3.55;2.10;;;20.50;66.90;;;;;;2352402;54;21005;-79
2021/10/20 08:48:21;;;;;;;6.40;2.28;;;20.70;67.40;;;;;;2353631;53;21509;-73
2021/10/20 08:50:53;;;;;;;3.65;1.80;;;20.80;67.40;;;;;;2317095;55;20963;-73
2021/10/20 08:53:19;;;;;;;3.22;2.00;;;20.90;66.50;;;;;;2351677;54;20978;-75
2021/10/20 08:55:46;;;;;;;3.83;2.17;;;21.00;64.80;;;;;;2371444;53;20944;-77
2021/10/20 08:58:13;;;;;;;4.23;2.10;;;21.10;65.60;;;;;;2380150;52;1874871;-75
2021/10/20 09:00:39;;;;;;;3.35;2.03;;;21.20;64.70;;;;;;2407385;52;20938;-75
2021/10/20 09:03:06;;;;;;;3.72;2.10;;;21.40;65.20;;;;;;2371854;53;21616;-76
2021/10/20 09:05:32;;;;;;;4.22;1.83;;;21.50;64.60;;;;;;2371514;53;20958;-75
2021/10/20 09:07:58;;;;;;;3.45;2.00;;;21.60;64.80;;;;;;2351523;53;20939;-78
2021/10/20 09:10:27;;;;;;;3.87;1.77;;;21.70;62.70;;;;;;2344106;53;20957;-75
2021/10/20 09:12:54;;;;;;;4.00;1.75;;;21.80;63.20;;;;;;2360747;54;21001;-79
2021/10/20 09:15:23;;;;;;;4.97;1.85;;;21.90;63.10;;;;;;2320157;53;21894;-77
2021/10/20 09:20:27;;;;;;;3.97;1.60;;;22.00;63.20;;;;;;2368036;53;21524;-77
2021/10/20 09:23:06;;;;;;;3.50;1.80;;;22.10;62.90;;;;;;2345923;54;21001;-75
2021/10/20 09:25:57;;;;;;;3.20;1.70;;;22.40;61.80;;;;;;2396417;52;21039;-75
2021/10/20 09:28:32;;;;;;;3.05;1.40;;;22.50;61.60;;;;;;2388549;53;21424;-75
2021/10/20 09:31:01;;;;;;;3.28;1.60;;;22.50;62.80;;;;;;2373081;53;20942;-76
2021/10/20 09:33:32;;;;;;;2.55;1.55;;;22.60;63.20;;;;;;2371616;53;20981;-75
2021/10/20 09:36:08;;;;;;;4.25;1.30;;;22.70;62.60;;;;;;2413850;52;21008;-75
2021/10/20 09:38:42;;;;;;;2.80;1.70;;;22.80;61.90;;;;;;2356829;53;20995;-75
2021/10/20 09:41:09;;;;;;;3.47;1.50;;;22.90;62.00;;;;;;2394248;53;21803;-74
2021/10/20 09:43:43;;;;;;;3.97;1.83;;;22.90;62.20;;;;;;2371290;53;21743;-76
2021/10/20 09:46:09;;;;;;;2.53;1.35;;;23.00;61.50;;;;;;2371725;53;21358;-76
2021/10/20 09:48:50;;;;;;;2.95;1.45;;;23.10;62.30;;;;;;2372101;53;20970;-75
2021/10/20 09:51:17;;;;;;;3.42;1.50;;;23.20;60.70;;;;;;2371449;53;20922;-75
2021/10/20 09:53:44;;;;;;;3.15;1.30;;;23.20;61.50;;;;;;2382017;52;20958;-75
2021/10/20 09:56:24;;;;;;;3.03;1.35;;;23.20;61.10;;;;;;2384822;52;21050;-76
2021/10/20 09:58:52;;;;;;;2.78;1.40;;;23.30;59.50;;;;;;2405859;53;21005;-75
2021/10/20 10:01:22;;;;;;;3.28;1.45;;;23.30;60.90;;;;;;2371851;53;20938;-74
2021/10/20 10:03:49;;;;;;;2.70;1.50;;;23.30;60.50;;;;;;2377094;52;21053;-76
2021/10/20 10:06:18;;;;;;;4.75;1.30;;;23.30;61.10;;;;;;2371752;53;21450;-75
2021/10/20 10:08:45;;;;;;;2.47;1.35;;;23.30;61.40;;;;;;2352588;53;21036;-76
2021/10/20 10:11:11;;;;;;;3.85;1.80;;;23.40;61.10;;;;;;2350432;53;21919;-76
2021/10/20 10:13:49;;;;;;;3.33;1.70;;;23.40;60.40;;;;;;2352995;53;20959;-76
2021/10/20 10:16:19;;;;;;;2.75;1.52;;;23.40;58.60;;;;;;2358564;53;20946;-75
2021/10/20 10:18:47;;;;;;;3.03;1.60;;;23.40;59.10;;;;;;2373126;53;21991;-75
2021/10/20 10:21:34;;;;;;;3.20;1.37;;;23.40;59.50;;;;;;2333841;53;22274;-77
2021/10/20 10:24:03;;;;;;;5.60;1.35;;;23.40;58.20;;;;;;2425325;52;21512;-78
2021/10/20 10:26:34;;;;;;;2.95;1.40;;;23.40;59.30;;;;;;2379697;53;21087;-76
2021/10/20 10:30:22;;;;;;;3.15;1.55;;;23.40;59.20;;;;;;2382447;53;20968;-75
2021/10/20 10:32:53;;;;;;;2.45;1.23;;;23.40;58.20;;;;;;2438581;52;20998;-74
2021/10/20 10:35:22;;;;;;;3.50;1.48;;;23.40;59.60;;;;;;2423851;53;21019;-75
2021/10/20 10:37:48;;;;;;;3.12;1.52;;;23.40;59.40;;;;;;2360183;53;20946;-77
2021/10/20 10:40:22;;;;;;;2.78;1.45;;;23.40;59.50;;;;;;2370318;53;21025;-77
2021/10/20 10:42:50;;;;;;;3.25;1.40;;;23.50;59.10;;;;;;2370306;53;20981;-75
2021/10/20 10:45:17;;;;;;;3.87;1.87;;;23.50;60.00;;;;;;2370424;53;20929;-74
2021/10/20 10:48:03;;;;;;;3.50;1.45;;;23.60;60.30;;;;;;2371293;53;20922;-77
2021/10/20 10:51:29;;;;;;;2.83;1.40;;;23.70;59.20;;;;;;2352981;53;21015;-76
2021/10/20 10:53:58;;;;;;;2.67;1.30;;;23.80;59.20;;;;;;2352086;53;20994;-76
2021/10/20 10:56:24;;;;;;;3.35;1.52;;;23.90;60.50;;;;;;2377475;52;21835;-75
2021/10/20 10:59:03;;;;;;;2.53;1.35;;;23.90;60.10;;;;;;2346111;53;21006;-76
2021/10/20 11:02:01;;;;;;;2.40;1.25;;;24.00;59.90;;;;;;2369858;53;20962;-77
2021/10/20 11:04:34;;;;;;;4.93;1.40;;;24.10;59.60;;;;;;2453072;52;20954;-76
2021/10/20 11:07:06;;;;;;;2.80;1.50;;;24.20;59.90;;;;;;2372389;53;21033;-76
2021/10/20 11:09:34;;;;;;;3.30;1.85;;;24.20;60.00;;;;;;2343046;53;20917;-76
2021/10/20 11:12:02;;;;;;;3.00;1.45;;;24.30;59.90;;;;;;2362743;53;20950;-79
2021/10/20 11:14:29;;;;;;;3.45;1.73;;;24.40;59.70;;;;;;2385819;52;20985;-75
2021/10/20 11:17:05;;;;;;;3.85;1.50;;;24.40;59.80;;;;;;2374626;52;20944;-76
2021/10/20 11:19:32;;;;;;;3.78;1.33;;;24.50;59.20;;;;;;2364878;53;21951;-74
2021/10/20 11:21:59;;;;;;;2.95;1.55;;;24.50;58.90;;;;;;2341154;54;21070;-75
2021/10/20 11:24:25;;;;;;;2.97;1.48;;;24.60;58.00;;;;;;2397259;52;20994;-74
2021/10/20 11:26:54;;;;;;;2.53;1.37;;;24.60;58.10;;;;;;2371536;53;20986;-77
2021/10/20 11:29:20;;;;;;;3.37;1.67;;;24.60;58.30;;;;;;2371561;53;21005;-75
2021/10/20 11:31:57;;;;;;;2.95;1.50;;;24.60;58.40;;;;;;2351138;53;20952;-73
2021/10/20 11:34:25;;;;;;;3.03;1.42;;;24.60;58.00;;;;;;2506701;52;21444;-75
2021/10/20 11:36:52;;;;;;;3.70;1.33;;;24.60;58.80;;;;;;2370354;53;20926;-74
2021/10/20 11:39:18;;;;;;;3.10;1.58;;;24.60;58.70;;;;;;2335759;54;20923;-73
2021/10/20 11:42:00;;;;;;;3.28;1.40;;;24.60;58.60;;;;;;2371394;53;21038;-74
2021/10/20 11:44:28;;;;;;;5.12;1.62;;;24.70;56.90;;;;;;2368140;53;21019;-77
2021/10/20 11:46:58;;;;;;;3.30;1.50;;;24.70;58.00;;;;;;2355611;53;21495;-74
2021/10/20 11:49:25;;;;;;;3.33;1.70;;;24.60;57.40;;;;;;2371370;53;20957;-75
2021/10/20 11:52:06;;;;;;;2.90;1.40;;;24.60;57.80;;;;;;2369739;53;20961;-76
2021/10/20 11:54:38;;;;;;;3.67;1.75;;;24.60;56.80;;;;;;2352843;53;20963;-75
2021/10/20 11:57:07;;;;;;;;;;;24.60;57.30;;;;;;2373832;53;20937;-74
2021/10/20 11:59:34;;;;;;;2.97;1.50;;;24.50;57.10;;;;;;2355721;52;20124;-75
2021/10/20 12:02:03;;;;;;;6.05;1.30;;;24.50;57.80;;;;;;2363358;53;20989;-75
2021/10/20 12:04:30;;;;;;;2.37;1.10;;;24.40;57.70;;;;;;2375228;52;20993;-75
2021/10/20 12:06:58;;;;;;;3.15;1.40;;;24.40;58.00;;;;;;2478776;52;20910;-75
2021/10/20 12:09:25;;;;;;;3.33;1.37;;;24.30;58.00;;;;;;2507757;52;21005;-76
2021/10/20 12:11:52;;;;;;;2.95;1.52;;;24.30;58.00;;;;;;2370735;53;21430;-75
2021/10/20 12:14:19;;;;;;;3.45;1.60;;;24.20;57.80;;;;;;2395050;52;21013;-75
2021/10/20 12:16:47;;;;;;;3.05;1.30;;;24.20;58.20;;;;;;2371383;53;20906;-74
2021/10/20 12:19:15;;;;;;;3.28;1.27;;;24.10;58.30;;;;;;2371814;53;21463;-75
2021/10/20 12:21:43;;;;;;;2.80;1.30;;;24.10;58.30;;;;;;2371024;53;20962;-75
2021/10/20 12:24:09;;;;;;;2.60;1.30;;;24.10;58.30;;;;;;2380438;52;20938;-77
2021/10/20 12:26:38;;;;;;;2.83;1.45;;;24.00;58.20;;;;;;2371415;53;21485;-74
2021/10/20 12:29:06;;;;;;;2.95;1.30;;;24.00;58.20;;;;;;2417463;52;21034;-75
2021/10/20 12:31:34;;;;;;;2.80;1.40;;;23.90;58.40;;;;;;2371036;53;21009;-76
2021/10/20 12:34:01;;;;;;;3.25;1.45;;;23.90;58.70;;;;;;2456978;52;21074;-79
2021/10/20 12:36:30;;;;;;;6.30;1.60;;;23.90;58.60;;;;;;2366349;53;21041;-76
2021/10/20 12:38:58;;;;;;;3.58;1.45;;;23.80;58.60;;;;;;2379804;52;21014;-76
2021/10/20 12:41:27;;;;;;;2.90;1.30;;;23.80;58.70;;;;;;2415334;53;21005;-74
2021/10/20 12:43:55;;;;;;;3.30;1.67;;;23.80;58.70;;;;;;2395607;52;21026;-75
2021/10/20 12:46:28;;;;;;;3.58;1.45;;;23.70;58.90;;;;;;2370911;53;21452;-75
2021/10/20 12:48:55;;;;;;;2.70;1.20;;;23.70;58.80;;;;;;2341304;52;21449;-74
2021/10/20 12:51:24;;;;;;;3.20;1.40;;;23.70;59.20;;;;;;2458654;52;21017;-74
2021/10/20 12:53:58;;;;;;;3.05;1.30;;;23.70;58.80;;;;;;2418108;52;21009;-74
2021/10/20 12:56:26;;;;;;;3.65;1.52;;;23.70;59.30;;;;;;2371900;53;21014;-75